Time;durP1;ratioP1;P1;durP2;ratioP2;P2;SDS_P1;SDS_P2;PMS_P1;PMS_P2;Temp;Humidity;BMP_temperature;BMP_pressure;BME280_temperature;BME280_humidity;BME280_pressure;Samples;Min_cycle;Max_cycle;Signal;HPM_P1;HPM_P2
2021/05/01 00:01:10;;;;;;;15.45;5.72;;;0.90;99.90;;;-0.93;100.00;101293.34;4925478;28;20143;-82
2021/05/01 00:03:34;;;;;;;21.35;6.15;;;0.80;99.90;;;-1.00;100.00;101292.44;4925871;28;20509;-82
2021/05/01 00:05:57;;;;;;;15.02;4.95;;;0.80;99.90;;;-1.09;100.00;101295.78;4926588;28;20082;-82
2021/05/01 00:08:22;;;;;;;15.55;5.72;;;0.70;99.90;;;-1.16;100.00;101304.34;4926607;28;20087;-82
2021/05/01 00:10:45;;;;;;;14.38;5.28;;;0.70;99.90;;;-1.14;100.00;101304.38;4927189;28;20093;-81
2021/05/01 00:13:08;;;;;;;31.30;3.83;;;0.70;99.90;;;-1.14;100.00;101307.81;4925764;28;20537;-83
2021/05/01 00:15:31;;;;;;;12.05;4.55;;;0.70;99.90;;;-1.16;100.00;101306.94;4930403;28;20078;-80
2021/05/01 00:17:54;;;;;;;17.35;5.38;;;0.60;99.90;;;-1.24;100.00;101300.81;4926645;28;20161;-83
2021/05/01 00:20:17;;;;;;;15.05;5.50;;;0.60;99.90;;;-1.30;100.00;101303.31;4926404;28;20086;-82
2021/05/01 00:22:40;;;;;;;31.58;5.20;;;0.50;99.90;;;-1.42;100.00;101300.63;4926352;28;20083;-83
2021/05/01 00:25:05;;;;;;;9.82;5.03;;;0.30;99.90;;;-1.54;100.00;101290.97;4926242;28;20086;-80
2021/05/01 00:27:27;;;;;;;29.17;6.18;;;0.20;99.90;;;-1.58;100.00;101302.97;4925119;28;20120;-83
2021/05/01 00:29:50;;;;;;;35.58;5.60;;;0.20;99.90;;;-1.70;100.00;101298.53;4927907;28;20082;-80
2021/05/01 00:32:13;;;;;;;23.60;5.53;;;;;;;-1.82;100.00;101300.09;4926190;28;20102;-83
2021/05/01 00:34:36;;;;;;;31.60;4.93;;;0.00;99.90;;;-1.94;100.00;101291.34;4926276;28;20078;-77
2021/05/01 00:36:59;;;;;;;32.83;5.97;;;-0.10;99.90;;;-1.99;100.00;101289.53;4927309;28;20094;-82
2021/05/01 00:39:22;;;;;;;20.10;5.05;;;-0.10;99.90;;;-1.97;100.00;101299.03;4929630;28;20170;-81
2021/05/01 00:41:46;;;;;;;13.82;5.18;;;-0.10;99.90;;;-1.97;100.00;101300.75;4926064;28;20089;-80
2021/05/01 00:44:10;;;;;;;21.25;4.65;;;-0.20;99.90;;;-2.04;100.00;101292.06;4930986;28;20143;-76
2021/05/01 00:46:33;;;;;;;11.90;4.82;;;-0.20;99.90;;;-2.07;100.00;101294.59;4932346;28;20140;-84
2021/05/01 00:48:56;;;;;;;25.75;5.93;;;-0.20;99.90;;;-2.09;100.00;101299.75;4914497;28;20097;-84
2021/05/01 00:51:19;;;;;;;21.42;5.50;;;-0.30;99.90;;;-2.15;100.00;101285.88;4912961;28;20112;-81
2021/05/01 00:53:42;;;;;;;13.52;5.63;;;-0.20;99.90;;;-2.08;100.00;101292.84;4912863;28;20082;-85
2021/05/01 00:56:06;;;;;;;11.75;4.97;;;-0.20;99.90;;;-2.00;100.00;101283.50;4912456;28;20075;-83
2021/05/01 00:58:30;;;;;;;30.90;4.32;;;-0.10;99.90;;;-1.97;100.00;101288.69;4910020;28;20090;-81
2021/05/01 01:01:13;;;;;;;19.45;5.28;;;-0.10;99.90;;;-1.91;100.00;101277.59;4913339;28;20094;-83
2021/05/01 01:03:39;;;;;;;86.40;5.85;;;0.00;99.90;;;-1.81;100.00;101281.16;4928702;28;20079;-82
2021/05/01 01:06:03;;;;;;;26.13;4.90;;;0.00;99.90;;;-1.84;100.00;101279.41;4927994;28;20140;-82
2021/05/01 01:08:26;;;;;;;23.08;4.72;;;0.00;99.90;;;-1.84;100.00;101276.84;4928898;28;20094;-84
2021/05/01 01:10:50;;;;;;;70.00;5.53;;;0.10;99.90;;;-1.77;100.00;101282.94;4926801;28;20526;-83
2021/05/01 01:13:13;;;;;;;144.85;5.03;;;0.10;99.90;;;-1.73;100.00;101279.56;4927810;28;20140;-81
2021/05/01 01:15:37;;;;;;;86.78;3.75;;;0.10;99.90;;;-1.73;100.00;101276.97;4930053;28;20522;-77
2021/05/01 01:18:01;;;;;;;75.65;3.88;;;0.20;99.90;;;-1.69;100.00;101276.16;4928323;28;20091;-81
2021/05/01 01:20:25;;;;;;;61.85;5.57;;;0.20;99.90;;;-1.68;100.00;101270.16;4930244;28;20157;-83
2021/05/01 01:22:49;;;;;;;92.60;5.00;;;0.20;99.90;;;-1.68;100.00;101276.19;4929567;28;20144;-81
2021/05/01 01:25:12;;;;;;;38.22;4.90;;;0.20;99.90;;;-1.65;100.00;101277.94;4930554;28;20086;-83
2021/05/01 01:27:36;;;;;;;78.50;4.97;;;0.20;99.90;;;-1.67;100.00;101277.91;4929709;28;20086;-84
2021/05/01 01:29:58;;;;;;;56.60;5.40;;;0.20;99.90;;;-1.70;100.00;101274.44;4929802;28;20461;-83
2021/05/01 01:32:21;;;;;;;28.25;4.93;;;0.20;99.90;;;-1.69;100.00;101276.16;4929091;28;20090;-84
2021/05/01 01:34:45;;;;;;;21.63;5.07;;;0.20;99.90;;;-1.67;100.00;101274.47;4929750;28;20098;-80
2021/05/01 01:37:09;;;;;;;52.70;5.18;;;0.20;99.90;;;-1.66;100.00;101278.81;4930715;28;20094;-83
2021/05/01 01:39:33;;;;;;;26.40;4.82;;;0.20;99.90;;;-1.66;100.00;101279.66;4928439;28;20114;-84
2021/05/01 01:41:56;;;;;;;82.25;6.70;;;0.20;99.90;;;-1.61;100.00;101282.28;4930400;28;20086;-83
2021/05/01 01:44:19;;;;;;;46.63;4.63;;;0.30;99.90;;;-1.60;100.00;101278.84;4928670;28;20540;-84
2021/05/01 01:46:42;;;;;;;30.00;4.95;;;0.30;99.90;;;-1.61;100.00;101278.84;4926793;28;20086;-82
2021/05/01 01:49:05;;;;;;;11.40;5.78;;;0.20;99.90;;;-1.64;100.00;101279.69;4929921;28;20085;-82
2021/05/01 01:51:28;;;;;;;22.60;5.20;;;0.20;99.90;;;-1.65;100.00;101280.53;4931043;28;20090;-83
2021/05/01 01:53:51;;;;;;;84.00;5.03;;;0.20;99.90;;;-1.65;100.00;101281.38;4927208;28;20090;-82
2021/05/01 01:56:15;;;;;;;24.45;4.30;;;0.20;99.90;;;-1.63;100.00;101280.53;4929853;28;20090;-82
2021/05/01 01:58:38;;;;;;;102.07;5.47;;;;;;;-1.61;100.00;101286.59;4928555;28;20086;-79
2021/05/01 02:01:01;;;;;;;64.93;5.70;;;-0.40;99.90;;;-1.67;100.00;101279.63;4929995;28;20091;-83
2021/05/01 02:03:24;;;;;;;17.13;4.60;;;0.20;99.90;;;-1.66;100.00;101278.81;4928427;28;20086;-81
2021/05/01 02:05:47;;;;;;;15.65;4.25;;;0.10;99.90;;;-1.74;100.00;101281.28;4931588;28;21747;-83
2021/05/01 02:08:11;;;;;;;11.23;4.88;;;0.10;99.90;;;-1.79;100.00;101293.25;4928086;28;20090;-83
2021/05/01 02:10:33;;;;;;;28.75;5.07;;;0.10;99.90;;;-1.74;100.00;101295.91;4928763;28;20598;-80
2021/05/01 02:12:57;;;;;;;36.30;5.30;;;0.10;99.90;;;-1.73;100.00;101283.03;4928961;28;20090;-81
2021/05/01 02:15:23;;;;;;;139.23;7.07;;;0.20;99.90;;;-1.69;100.00;101286.50;4927263;28;20083;-80
2021/05/01 02:17:48;;;;;;;34.50;5.55;;;0.20;99.90;;;-1.72;100.00;101286.47;4928412;28;20090;-82
2021/05/01 02:20:14;;;;;;;13.82;5.18;;;0.10;99.90;;;-1.80;100.00;101285.50;4927849;28;20153;-82
2021/05/01 02:22:38;;;;;;;19.27;5.18;;;0.10;99.90;;;-1.81;100.00;101288.91;4927870;28;20482;-82
2021/05/01 02:25:01;;;;;;;10.35;5.05;;;0.00;99.90;;;-1.83;100.00;101275.13;4927005;28;20097;-81
2021/05/01 02:27:24;;;;;;;26.52;5.43;;;0.00;99.90;;;-1.85;100.00;101272.53;4929982;28;20164;-83
2021/05/01 02:29:47;;;;;;;14.18;4.95;;;0.00;99.90;;;-1.83;100.00;101277.72;4928261;28;20094;-82
2021/05/01 02:32:10;;;;;;;10.48;5.10;;;0.00;99.90;;;-1.87;100.00;101271.63;4928468;28;20567;-80
2021/05/01 02:34:33;;;;;;;47.75;6.07;;;;;;;-1.91;100.00;101273.31;4928906;28;20160;-82
2021/05/01 02:36:56;;;;;;;104.95;5.82;;;-0.10;99.90;;;-1.94;100.00;101273.28;4928059;28;20162;-81
2021/05/01 02:39:20;;;;;;;83.60;5.90;;;-0.10;99.90;;;-1.91;100.00;101270.72;4928565;28;20488;-82
2021/05/01 02:41:43;;;;;;;151.27;6.10;;;-0.10;99.90;;;-1.94;100.00;101267.25;4928429;28;20568;-81
2021/05/01 02:44:06;;;;;;;160.85;7.00;;;0.00;99.90;;;-1.94;100.00;101269.84;4924905;28;20090;-82
2021/05/01 02:46:30;;;;;;;84.55;6.05;;;-0.10;99.90;;;-2.00;100.00;101269.75;4929390;28;20090;-80
2021/05/01 02:48:53;;;;;;;51.88;4.55;;;-0.10;99.90;;;-2.03;100.00;101268.00;4927506;28;20086;-83
2021/05/01 02:51:16;;;;;;;106.65;5.05;;;-0.10;99.90;;;-2.02;100.00;101264.56;4928324;28;20135;-80
2021/05/01 02:53:39;;;;;;;69.30;5.03;;;-0.20;99.90;;;-2.01;100.00;101263.69;4928618;28;20082;-82
2021/05/01 02:56:02;;;;;;;98.63;5.75;;;-0.20;99.90;;;-2.09;100.00;101265.34;4927632;28;20086;-82
2021/05/01 02:58:25;;;;;;;209.27;7.10;;;-0.30;99.90;;;-2.16;100.00;101255.75;4924495;28;20083;-78
2021/05/01 03:00:48;;;;;;;148.27;6.13;;;-0.30;99.90;;;-2.15;100.00;101249.75;4929474;28;20083;-84
2021/05/01 03:03:12;;;;;;;135.93;6.00;;;-0.30;99.90;;;-2.16;100.00;101245.44;4927941;28;20091;-83
2021/05/01 03:05:35;;;;;;;89.22;4.15;;;-0.20;99.90;;;-2.02;100.00;101243.91;4927906;28;20090;-81
2021/05/01 03:07:58;;;;;;;90.85;5.00;;;-0.10;99.90;;;-1.97;100.00;101249.13;4924786;28;20098;-80
2021/05/01 03:10:23;;;;;;;97.00;5.32;;;0.00;99.90;;;-1.83;100.00;101249.31;4927307;28;20097;-83
2021/05/01 03:12:46;;;;;;;68.75;5.95;;;0.00;99.90;;;-1.84;100.00;101247.56;4923607;28;20087;-82
2021/05/01 03:15:12;;;;;;;108.85;5.05;;;0.00;99.90;;;-1.93;100.00;101246.59;4914670;28;20474;-83
2021/05/01 03:17:35;;;;;;;63.60;5.57;;;-0.10;99.90;;;-1.95;100.00;101247.44;4920218;28;20545;-81
2021/05/01 03:19:58;;;;;;;78.68;6.18;;;-0.10;99.90;;;-1.90;100.00;101243.19;4928124;28;20082;-81
2021/05/01 03:22:21;;;;;;;43.63;5.85;;;0.00;99.90;;;-1.89;100.00;101250.97;4926291;28;20091;-82
2021/05/01 03:24:44;;;;;;;87.13;5.88;;;0.00;99.90;;;-1.88;100.00;101250.13;4928824;28;20506;-83
2021/05/01 03:27:08;;;;;;;128.35;6.05;;;0.00;99.90;;;-1.88;100.00;101244.97;4926344;28;20082;-83
2021/05/01 03:29:31;;;;;;;133.32;6.10;;;0.00;99.90;;;-1.86;100.00;101238.13;4924997;28;20086;-83
2021/05/01 03:31:54;;;;;;;104.50;7.22;;;0.00;99.90;;;-1.86;100.00;101235.53;4927782;28;20101;-81
2021/05/01 03:34:17;;;;;;;54.08;5.28;;;0.00;99.90;;;-1.80;100.00;101231.28;4927324;28;20086;-81
2021/05/01 03:36:40;;;;;;;24.73;5.57;;;0.10;99.90;;;-1.74;100.00;101244.28;4923144;28;20091;-82
2021/05/01 03:39:06;;;;;;;19.35;6.10;;;0.20;99.90;;;-1.55;100.00;101238.47;4926475;28;20087;-82
2021/05/01 03:41:29;;;;;;;;;;;0.20;99.90;;;-1.43;100.00;101242.03;4927977;28;20095;-81
2021/05/01 03:43:51;;;;;;;94.65;4.95;;;0.40;99.90;;;-1.39;100.00;101239.50;4927268;28;19970;-82
2021/05/01 03:46:14;;;;;;;124.35;6.28;;;0.40;99.90;;;-1.31;100.00;101249.91;4928360;28;20529;-83
2021/05/01 03:48:37;;;;;;;76.15;6.40;;;0.60;99.90;;;-1.22;100.00;101246.56;4926286;28;20220;-84
2021/05/01 03:51:00;;;;;;;35.85;5.93;;;0.60;99.90;;;-1.26;100.00;101233.59;4928741;28;20185;-79
2021/05/01 03:53:24;;;;;;;144.25;8.07;;;0.60;99.90;;;-1.30;100.00;101241.31;4927360;28;20090;-83
2021/05/01 03:55:47;;;;;;;110.40;8.80;;;0.50;99.90;;;-1.29;100.00;101243.06;4927091;28;20090;-84
2021/05/01 03:58:11;;;;;;;32.55;7.20;;;;;;;-1.12;100.00;101240.66;4927461;28;20102;-83
2021/05/01 04:00:34;;;;;;;23.70;7.15;;;0.70;99.90;;;-1.07;100.00;101241.53;4927108;28;20086;-78
2021/05/01 04:02:57;;;;;;;66.45;7.38;;;0.80;99.90;;;-1.05;100.00;101243.28;4923169;28;20091;-83
2021/05/01 04:05:20;;;;;;;18.98;7.80;;;0.80;99.90;;;-0.95;100.00;101248.53;4928950;28;20086;-84
2021/05/01 04:07:44;;;;;;;15.05;6.50;;;0.90;99.90;;;-0.90;100.00;101247.72;4925233;28;20215;-82
2021/05/01 04:10:09;;;;;;;17.58;7.03;;;1.00;99.90;;;-0.81;100.00;101246.94;4928367;28;20094;-82
2021/05/01 04:12:32;;;;;;;24.25;7.03;;;1.10;99.90;;;-0.74;100.00;101242.69;4926889;28;20082;-81
2021/05/01 04:14:55;;;;;;;16.17;7.00;;;1.30;99.90;;;-0.46;100.00;101244.59;4928110;28;20541;-83
2021/05/01 04:17:19;;;;;;;17.40;6.95;;;;;;;-0.11;100.00;101256.94;4927728;28;20083;-82
2021/05/01 04:19:42;;;;;;;17.25;7.18;;;;;;;0.24;100.00;101257.94;4930745;28;20658;-84
2021/05/01 04:22:05;;;;;;;15.88;6.95;;;2.40;99.90;;;0.61;100.00;101261.56;4932731;28;20090;-83
2021/05/01 04:24:28;;;;;;;17.48;7.25;;;2.60;99.90;;;0.79;100.00;101258.13;4930022;28;20090;-84
2021/05/01 04:26:53;;;;;;;17.42;6.97;;;2.80;99.90;;;1.07;100.00;101250.41;4930084;28;20093;-81
2021/05/01 04:29:16;;;;;;;15.75;6.53;;;;;;;1.61;100.00;101246.06;4929416;28;20453;-78
2021/05/01 04:31:39;;;;;;;13.75;6.90;;;3.90;99.90;;;2.32;100.00;101248.47;4932851;28;20144;-83
2021/05/01 04:34:03;;;;;;;14.73;6.93;;;4.50;99.90;;;2.81;100.00;101238.69;4929604;28;20082;-83
2021/05/01 04:36:26;;;;;;;16.90;5.40;;;5.20;99.90;;;3.83;100.00;101240.44;4932871;28;20548;-83
2021/05/01 04:38:48;;;;;;;16.40;5.53;;;5.60;99.90;;;4.13;100.00;101238.38;4929906;28;20479;-83
2021/05/01 04:41:12;;;;;;;10.52;5.03;;;5.80;99.90;;;4.43;100.00;101231.91;4930577;28;20096;-86
2021/05/01 04:43:36;;;;;;;11.18;4.82;;;6.10;99.90;;;4.27;100.00;101231.22;4930847;28;20076;-80
2021/05/01 04:45:59;;;;;;;6.90;4.30;;;6.30;99.90;;;4.80;100.00;101220.97;4930099;28;20087;-83
2021/05/01 04:48:22;;;;;;;10.07;4.35;;;7.10;99.90;;;5.75;100.00;101220.22;4930308;28;20076;-83
2021/05/01 04:50:49;;;;;;;9.63;5.40;;;7.90;99.90;;;6.39;100.00;101221.59;4928671;28;20075;-85
2021/05/01 04:53:12;;;;;;;8.05;4.55;;;8.70;99.90;;;7.24;83.24;101202.19;4930610;28;20549;-84
2021/05/01 04:55:35;;;;;;;10.90;4.88;;;9.60;99.90;;;7.89;77.70;101215.31;4930312;28;20070;-80
2021/05/01 04:57:58;;;;;;;9.57;4.45;;;10.30;99.90;;;8.92;74.58;101208.78;4930358;28;20052;-83
2021/05/01 05:00:24;;;;;;;8.10;4.32;;;11.10;99.90;;;9.73;68.25;101213.09;4930801;28;20067;-86
2021/05/01 05:02:48;;;;;;;12.13;4.38;;;11.60;99.90;;;10.49;66.18;101219.13;4928681;28;20047;-82
2021/05/01 05:05:13;;;;;;;5.55;4.03;;;12.40;99.90;;;11.24;64.67;101208.22;4930804;28;20483;-86
2021/05/01 05:07:36;;;;;;;6.13;3.85;;;13.00;99.90;;;11.78;61.99;101217.31;4930068;28;20044;-86
2021/05/01 05:09:59;;;;;;;7.68;3.90;;;13.50;99.90;;;12.15;59.70;101215.72;4927581;28;20060;-86
2021/05/01 05:12:22;;;;;;;6.57;4.20;;;14.10;99.90;;;12.91;58.49;101215.69;4930013;28;20044;-80
2021/05/01 05:14:45;;;;;;;7.78;4.30;;;13.70;99.90;;;12.84;55.83;101209.00;4929628;28;20044;-85
2021/05/01 05:17:09;;;;;;;9.75;4.38;;;14.00;99.90;;;12.21;58.93;101212.78;4929834;28;20047;-86
2021/05/01 05:19:32;;;;;;;9.65;4.28;;;13.90;99.90;;;12.23;57.24;101218.88;4928682;28;20048;-84
2021/05/01 05:21:54;;;;;;;9.25;4.50;;;13.50;99.90;;;12.60;57.91;101222.44;4931694;28;20241;-87
2021/05/01 05:24:17;;;;;;;8.23;4.30;;;13.80;99.90;;;11.86;58.95;101217.84;4929508;28;20040;-86
2021/05/01 05:26:40;;;;;;;8.52;4.93;;;13.50;99.90;;;10.92;63.49;101226.19;4929910;28;20052;-83
2021/05/01 05:29:03;;;;;;;11.70;5.47;;;13.10;99.90;;;11.97;61.38;101216.56;4926190;28;20124;-83
2021/05/01 05:31:26;;;;;;;12.20;5.32;;;13.70;99.90;;;11.58;62.62;101222.63;4930039;28;20047;-82
2021/05/01 05:33:50;;;;;;;8.00;4.60;;;13.80;99.90;;;12.00;60.41;101217.25;4930199;28;20048;-86
2021/05/01 05:36:13;;;;;;;6.75;4.55;;;13.00;99.90;;;11.15;62.60;101229.69;4930520;28;20040;-82
2021/05/01 05:38:36;;;;;;;10.13;5.10;;;11.80;99.90;;;10.36;64.96;101232.75;4927610;28;20047;-76
2021/05/01 05:40:59;;;;;;;9.68;5.68;;;11.00;99.90;;;9.42;69.08;101230.78;4930285;28;20609;-86
2021/05/01 05:43:22;;;;;;;11.13;5.45;;;10.30;99.90;;;9.12;70.38;101227.41;4930342;28;20062;-86
2021/05/01 05:45:47;;;;;;;11.55;6.43;;;10.30;99.90;;;9.08;71.14;101225.78;4928701;28;20097;-81
2021/05/01 05:48:10;;;;;;;10.43;6.03;;;10.70;99.90;;;9.31;71.59;101221.53;4930220;28;20044;-87
2021/05/01 05:50:34;;;;;;;9.77;5.55;;;11.10;99.90;;;9.85;68.28;101220.56;4928656;28;20447;-81
2021/05/01 05:52:57;;;;;;;15.48;7.90;;;11.20;99.90;;;10.50;68.40;101221.69;4930207;28;20036;-87
2021/05/01 05:55:20;;;;;;;9.23;5.95;;;12.30;99.90;;;11.86;62.73;101219.63;4928901;28;22566;-87
2021/05/01 05:57:50;;;;;;;10.60;5.22;;;13.30;99.90;;;12.57;57.85;101221.72;4929648;28;20483;-86
2021/05/01 06:00:15;;;;;;;8.52;4.78;;;14.20;99.90;;;13.08;58.50;101218.34;4928574;28;20059;-87
2021/05/01 06:02:38;;;;;;;11.27;5.70;;;14.00;99.90;;;13.24;58.77;101213.19;4928399;28;20032;-81
2021/05/01 06:05:08;;;;;;;8.15;4.70;;;14.40;99.90;;;14.11;57.05;101221.06;4929619;28;20104;-86
2021/05/01 06:07:37;;;;;;;8.57;4.88;;;14.60;99.90;;;13.29;54.88;101213.81;4927167;28;20050;-85
2021/05/01 06:10:05;;;;;;;7.95;4.72;;;13.40;99.90;;;11.85;59.43;101224.03;4926738;28;20051;-84
2021/05/01 06:12:28;;;;;;;10.07;4.88;;;12.80;99.90;;;11.79;60.96;101232.25;4928840;28;20036;-84
2021/05/01 06:14:55;;;;;;;9.95;5.10;;;12.90;99.90;;;12.69;59.62;101223.78;4928115;28;20056;-84
2021/05/01 06:17:23;;;;;;;9.93;4.90;;;12.60;99.90;;;11.67;60.80;101230.13;4928634;28;20052;-85
2021/05/01 06:19:48;;;;;;;8.25;5.20;;;12.90;99.90;;;11.84;60.46;101222.34;4927570;28;20654;-86
2021/05/01 06:22:12;;;;;;;9.52;4.88;;;13.10;99.90;;;11.63;61.53;101213.56;4929026;28;20044;-86
2021/05/01 06:24:39;;;;;;;8.43;4.78;;;13.00;99.90;;;12.72;56.98;101213.06;4927982;28;20143;-78
2021/05/01 06:27:02;;;;;;;8.55;4.85;;;12.80;99.90;;;12.91;56.42;101208.63;4928486;28;20113;-82
2021/05/01 06:29:26;;;;;;;8.43;5.13;;;13.10;99.90;;;11.96;59.37;101217.47;4926406;28;20055;-83
2021/05/01 06:31:49;;;;;;;11.18;5.00;;;13.10;99.90;;;12.04;60.46;101212.72;4927982;28;20047;-85
2021/05/01 06:34:13;;;;;;;13.27;4.82;;;13.30;99.90;;;12.56;55.77;101220.88;4930001;28;20050;-85
2021/05/01 06:36:37;;;;;;;7.57;4.60;;;13.20;99.90;;;11.93;57.74;101220.25;4928016;28;20054;-82
2021/05/01 06:39:03;;;;;;;7.68;4.45;;;13.40;99.90;;;12.95;57.52;101219.88;4927178;28;20069;-82
2021/05/01 06:41:38;;;;;;;8.70;4.72;;;13.40;99.90;;;12.97;55.44;101215.38;4925270;28;20097;-84
2021/05/01 06:44:07;;;;;;;7.15;4.03;;;13.80;99.90;;;13.42;54.81;101213.22;4927350;28;20051;-83
2021/05/01 06:46:34;;;;;;;9.18;5.07;;;13.20;99.90;;;12.78;53.90;101215.41;4927158;28;20079;-86
2021/05/01 06:49:02;;;;;;;6.15;4.20;;;13.50;99.90;;;13.01;52.96;101222.25;4926496;28;20040;-84
2021/05/01 06:51:26;;;;;;;10.68;5.20;;;13.40;99.90;;;13.30;52.56;101212.91;4927548;28;20072;-86
2021/05/01 06:53:49;;;;;;;10.10;5.00;;;12.30;99.90;;;11.16;59.13;101224.34;4928654;28;20047;-85
2021/05/01 06:56:14;;;;;;;7.47;4.57;;;11.50;99.90;;;10.51;62.62;101220.78;4926085;28;20101;-85
2021/05/01 06:58:40;;;;;;;11.17;5.63;;;11.10;99.90;;;9.54;64.59;101226.88;4928018;28;20048;-84
2021/05/01 07:01:08;;;;;;;8.40;4.57;;;10.60;99.90;;;9.24;65.14;101221.75;4927575;28;20043;-82
2021/05/01 07:03:34;;;;;;;7.70;4.57;;;10.40;99.90;;;9.15;65.98;101231.69;4928986;28;20087;-85
2021/05/01 07:05:58;;;;;;;11.73;5.88;;;10.40;99.90;;;9.45;67.69;101227.19;4924684;28;20077;-83
2021/05/01 07:08:21;;;;;;;20.45;7.15;;;10.50;99.90;;;9.54;67.06;101224.25;4930895;28;20084;-83
2021/05/01 07:10:45;;;;;;;9.18;5.22;;;10.70;99.90;;;9.51;66.37;101223.50;4927732;28;20091;-85
2021/05/01 07:13:14;;;;;;;15.65;6.00;;;10.60;99.90;;;9.61;64.74;101227.50;4929682;28;20453;-85
2021/05/01 07:15:40;;;;;;;11.25;5.10;;;10.40;99.90;;;9.38;66.28;101226.53;4926983;28;20085;-83
2021/05/01 07:18:03;;;;;;;9.80;5.95;;;10.40;99.90;;;9.44;63.83;101231.59;4927390;28;20160;-85
2021/05/01 07:20:26;;;;;;;9.63;5.80;;;10.50;99.90;;;9.60;66.72;101221.41;4926708;28;20072;-80
2021/05/01 07:22:52;;;;;;;16.42;7.70;;;10.70;99.90;;;9.93;63.45;101241.31;4927936;28;20080;-83
2021/05/01 07:25:15;;;;;;;21.17;9.40;;;10.80;99.90;;;10.13;62.82;101233.59;4925692;28;20091;-84
2021/05/01 07:27:47;;;;;;;9.18;5.35;;;10.80;99.90;;;9.89;64.15;101230.03;4926661;28;20091;-82
2021/05/01 07:30:12;;;;;;;9.40;3.92;;;11.10;99.90;;;10.05;63.60;101233.84;4927189;28;20087;-82
2021/05/01 07:32:40;;;;;;;6.32;4.07;;;11.00;99.90;;;10.29;61.86;101235.63;4926480;28;20090;-84
2021/05/01 07:35:06;;;;;;;8.80;4.10;;;11.00;99.90;;;9.83;63.97;101233.75;4926344;28;20083;-85
2021/05/01 07:37:35;;;;;;;6.30;3.92;;;10.60;99.90;;;9.60;64.84;101234.56;4926434;28;20078;-84
2021/05/01 07:40:00;;;;;;;8.82;4.57;;;10.60;99.90;;;9.33;64.98;101243.38;4928394;28;20616;-84
2021/05/01 07:42:23;;;;;;;7.10;4.43;;;10.40;99.90;;;9.27;65.61;101240.97;4926033;28;20076;-84
2021/05/01 07:44:47;;;;;;;10.05;4.70;;;10.70;99.90;;;9.68;64.25;101247.44;4925875;28;20083;-82
2021/05/01 07:47:10;;;;;;;8.32;4.38;;;10.60;99.90;;;9.74;64.37;101241.09;4926986;28;20088;-87
2021/05/01 07:49:38;;;;;;;8.07;4.13;;;10.50;99.90;;;9.70;64.54;101236.84;4927446;28;20087;-84
2021/05/01 07:52:01;;;;;;;8.10;4.63;;;10.70;99.90;;;9.93;64.12;101234.28;4923874;28;20083;-83
2021/05/01 07:54:24;;;;;;;8.05;4.63;;;10.90;99.90;;;9.90;63.04;101236.19;4926998;28;20084;-81
2021/05/01 07:56:47;;;;;;;10.20;4.10;;;11.00;99.90;;;10.17;64.74;101237.81;4925835;28;20091;-84
2021/05/01 07:59:11;;;;;;;10.30;4.43;;;11.10;99.90;;;9.85;63.56;101241.59;4927294;28;20129;-83
2021/05/01 08:01:34;;;;;;;6.95;3.95;;;10.80;99.90;;;9.43;64.66;101239.53;4926825;28;20092;-81
2021/05/01 08:03:57;;;;;;;5.45;3.47;;;10.80;99.90;;;9.78;63.69;101242.72;4927446;28;20268;-84
2021/05/01 08:06:21;;;;;;;6.25;3.45;;;11.00;99.90;;;9.96;62.00;101234.19;4928282;28;20083;-85
2021/05/01 08:08:44;;;;;;;13.73;5.68;;;11.30;99.90;;;10.25;61.56;101237.53;4925770;28;20466;-81
2021/05/01 08:11:07;;;;;;;5.75;3.50;;;11.30;99.90;;;10.57;58.60;101238.97;4927717;28;20151;-83
2021/05/01 08:13:30;;;;;;;5.60;3.67;;;11.40;99.90;;;10.44;60.66;101235.94;4925742;28;20091;-83
2021/05/01 08:15:53;;;;;;;6.80;4.75;;;11.50;99.90;;;11.06;60.75;101226.50;4927274;28;20117;-80
2021/05/01 08:18:17;;;;;;;6.63;3.97;;;11.70;99.90;;;10.97;58.91;101228.63;4926588;28;20096;-84
2021/05/01 08:20:40;;;;;;;5.20;3.35;;;11.60;99.90;;;10.65;58.78;101233.41;4927415;28;20071;-84
2021/05/01 08:23:04;;;;;;;6.07;3.95;;;11.50;99.90;;;10.83;58.83;101230.03;4924877;28;20078;-82
2021/05/01 08:25:28;;;;;;;5.32;3.17;;;11.90;99.90;;;11.58;56.30;101228.75;4927629;28;20100;-84
2021/05/01 08:27:51;;;;;;;7.70;3.38;;;12.30;99.90;;;12.01;56.54;101226.91;4926815;28;20090;-83
2021/05/01 08:30:16;;;;;;;4.35;2.72;;;12.70;99.90;;;11.90;54.21;101240.56;4925969;28;20063;-83
2021/05/01 08:32:39;;;;;;;6.53;3.33;;;12.60;99.90;;;11.92;54.45;101229.94;4925880;28;20082;-78
2021/05/01 08:35:02;;;;;;;5.78;3.67;;;12.40;99.90;;;11.72;55.38;101232.56;4927578;28;20077;-81
2021/05/01 08:37:25;;;;;;;9.77;5.05;;;12.00;99.90;;;11.29;54.41;101222.06;4927026;28;20574;-83
2021/05/01 08:39:49;;;;;;;6.43;4.20;;;12.20;99.90;;;11.89;51.83;101235.34;4926862;28;20094;-83
2021/05/01 08:42:12;;;;;;;5.95;3.05;;;12.20;99.90;;;11.59;53.62;101233.09;4925793;28;20092;-84
2021/05/01 08:44:36;;;;;;;5.38;3.60;;;12.20;99.90;;;11.75;53.32;101227.13;4927460;28;20066;-83
2021/05/01 08:46:59;;;;;;;8.15;4.55;;;12.30;99.90;;;12.03;55.30;101227.69;4926032;28;20169;-83
2021/05/01 08:49:22;;;;;;;6.72;3.85;;;13.00;99.90;;;12.64;53.54;101218.72;4927895;28;20089;-84
2021/05/01 08:51:46;;;;;;;4.95;3.25;;;13.00;99.90;;;12.08;51.48;101217.78;4926760;28;20093;-79
2021/05/01 08:54:11;;;;;;;5.93;2.50;;;13.00;99.90;;;12.68;48.12;101216.81;4926003;28;20055;-83
2021/05/01 08:56:35;;;;;;;3.47;1.98;;;12.50;99.90;;;12.03;50.10;101222.41;4925001;28;20083;-83
2021/05/01 08:59:00;;;;;;;2.83;2.17;;;12.60;99.90;;;11.67;47.73;101214.31;4925911;28;20077;-84
2021/05/01 09:01:36;;;;;;;4.60;2.72;;;12.30;99.90;;;11.78;49.37;101216.47;4874998;28;20093;-83
2021/05/01 09:04:45;;;;;;;4.32;2.47;;;12.80;99.90;;;12.26;49.03;101209.94;4827280;28;20078;-85
2021/05/01 09:07:57;;;;;;;6.57;2.60;;;12.30;99.90;;;11.59;50.28;101214.63;4837584;28;20110;-83
2021/05/01 09:11:09;;;;;;;8.00;2.00;;;12.80;99.90;;;12.18;48.79;101197.13;4840651;28;20074;-80
2021/05/01 09:14:41;;;;;;;5.20;2.13;;;13.80;99.90;;;12.96;46.86;101194.31;4841121;28;20060;-82
2021/05/01 09:42:36;;;;;;;2.35;1.52;;;13.00;99.60;;;12.26;40.96;101194.94;4803484;28;20399;-77
2021/05/01 09:45:53;;;;;;;5.43;2.20;;;13.40;98.90;;;12.69;39.70;101179.72;4817885;28;20043;-80
2021/05/01 10:09:05;;;;;;;6.13;2.90;;;12.80;99.90;;;11.84;44.81;101172.19;4807208;28;20085;-80
2021/05/01 10:27:54;;;;;;;6.63;2.80;;;11.90;99.90;;;10.67;47.11;101157.84;4820037;28;20088;-78
2021/05/01 10:56:28;;;;;;;5.95;2.35;;;10.90;99.90;;;9.67;48.23;101165.97;4858494;28;20221;-75
2021/05/01 10:58:54;;;;;;;5.45;2.20;;;10.90;99.90;;;9.68;47.60;101162.47;4891750;28;20085;-77
2021/05/01 11:01:33;;;;;;;4.68;2.30;;;10.80;99.90;;;9.59;48.98;101161.88;4890783;28;20115;-79
2021/05/01 11:04:01;;;;;;;5.28;3.08;;;10.90;99.90;;;9.74;48.38;101168.34;4878795;28;20085;-79
2021/05/01 11:06:26;;;;;;;4.57;2.60;;;11.00;99.90;;;9.84;47.29;101177.59;4891618;28;20089;-78
2021/05/01 11:09:03;;;;;;;3.17;1.63;;;10.90;99.90;;;9.65;45.98;101172.16;4891227;28;20078;-77
2021/05/01 11:11:33;;;;;;;3.42;2.20;;;10.80;99.90;;;9.56;46.04;101164.59;4876083;28;20077;-78
2021/05/01 11:14:02;;;;;;;2.90;1.73;;;10.70;99.90;;;9.58;45.27;101160.13;4890544;28;20074;-78
2021/05/01 11:16:43;;;;;;;4.03;1.38;;;11.30;98.20;;;9.58;43.76;101151.41;4889998;28;20086;-77
2021/05/01 11:19:07;;;;;;;7.10;3.33;;;10.90;98.60;;;9.77;44.25;101159.47;4873363;28;20073;-78
2021/05/01 11:21:30;;;;;;;2.45;1.30;;;11.00;99.10;;;9.90;44.20;101154.63;4872733;28;20080;-77
2021/05/01 11:23:54;;;;;;;4.43;2.17;;;11.00;97.30;;;9.90;43.03;101152.00;4889785;28;20432;-75
2021/05/01 11:26:18;;;;;;;14.18;7.30;;;10.90;96.80;;;9.61;40.80;101154.78;4889103;28;20076;-78
2021/05/01 11:28:42;;;;;;;4.32;2.65;;;10.90;97.40;;;9.83;42.55;101154.00;4889490;28;20082;-76
2021/05/01 11:31:06;;;;;;;4.45;1.38;;;11.10;99.90;;;9.90;47.04;101158.13;4882226;28;20449;-81